createdAt,value
2022-09-12T00:00:31.633Z,11.50
2022-09-12T00:04:36.151Z,11.50
2022-09-12T00:08:38.154Z,11.40
2022-09-12T00:12:40.230Z,11.30
2022-09-12T00:16:42.664Z,11.20
2022-09-12T00:20:47.791Z,11.20
2022-09-12T00:24:49.726Z,11.10
2022-09-12T00:28:51.968Z,11.10
2022-09-12T00:32:53.915Z,11.10
2022-09-12T00:36:58.465Z,11.10
2022-09-12T00:41:00.444Z,11.20
2022-09-12T00:45:02.541Z,11.20
2022-09-12T00:49:11.125Z,11.20
2022-09-12T00:53:16.043Z,11.20
2022-09-12T00:57:19.224Z,11.10
2022-09-12T01:01:21.424Z,11.10
2022-09-12T01:05:24.969Z,11.10
2022-09-12T01:09:29.489Z,11.10
2022-09-12T01:13:33.877Z,11.10
2022-09-12T01:17:48.852Z,11.10
2022-09-12T01:22:03.077Z,11.00
2022-09-12T01:26:28.040Z,11.00
2022-09-12T01:30:46.142Z,10.90
2022-09-12T01:34:53.843Z,10.80
2022-09-12T01:39:01.221Z,10.70
2022-09-12T01:43:12.175Z,10.70
2022-09-12T01:47:19.672Z,10.60
2022-09-12T01:51:25.071Z,10.70
2022-09-12T01:55:31.832Z,10.70
2022-09-12T01:59:38.512Z,10.80
2022-09-12T02:03:48.318Z,10.80
2022-09-12T02:07:53.754Z,10.80
2022-09-12T02:12:00.143Z,10.80
2022-09-12T02:16:07.877Z,10.80
2022-09-12T02:20:43.942Z,10.80
2022-09-12T02:24:43.408Z,10.80
2022-09-12T02:28:45.599Z,10.70
2022-09-12T02:32:58.836Z,10.70
2022-09-12T02:37:12.756Z,10.70
2022-09-12T02:41:18.726Z,10.60
2022-09-12T02:45:21.294Z,10.50
2022-09-12T02:49:23.438Z,10.50
2022-09-12T02:53:28.537Z,10.40
2022-09-12T02:57:31.067Z,10.40
2022-09-12T03:01:57.559Z,10.40
2022-09-12T03:06:02.057Z,10.40
2022-09-12T03:10:14.414Z,10.40
2022-09-12T03:14:31.747Z,10.30
2022-09-12T03:18:47.823Z,10.30
2022-09-12T03:22:54.864Z,10.30
2022-09-12T03:27:05.278Z,10.20
2022-09-12T03:31:13.673Z,10.30
2022-09-12T03:35:20.886Z,10.30
2022-09-12T03:39:25.148Z,10.40
2022-09-12T03:43:29.693Z,10.30
2022-09-12T03:47:32.029Z,10.20
2022-09-12T03:51:34.026Z,10.20
2022-09-12T03:55:36.041Z,10.20
2022-09-12T03:59:40.559Z,10.20
2022-09-12T04:03:43.441Z,10.20
2022-09-12T04:07:45.373Z,10.20
2022-09-12T04:11:47.320Z,10.20
2022-09-12T04:15:59.739Z,10.20
2022-09-12T04:20:02.264Z,10.20
2022-09-12T04:24:04.509Z,10.20
2022-09-12T04:28:06.473Z,10.20
2022-09-12T04:32:11.028Z,10.20
2022-09-12T04:36:15.265Z,10.10
2022-09-12T04:40:17.423Z,10.00
2022-09-12T04:44:19.372Z,10.00
2022-09-12T04:48:23.916Z,9.80
2022-09-12T04:52:25.883Z,9.80
2022-09-12T04:56:28.659Z,9.80
2022-09-12T05:00:30.650Z,9.80
2022-09-12T05:04:37.573Z,9.80
2022-09-12T05:08:39.694Z,9.80
2022-09-12T05:12:41.618Z,9.80
2022-09-12T05:16:48.553Z,9.90
2022-09-12T05:20:54.269Z,10.00
2022-09-12T05:24:56.255Z,10.10
2022-09-12T05:28:58.210Z,10.20
2022-09-12T05:33:00.195Z,10.30
2022-09-12T05:37:04.873Z,10.40
2022-09-12T05:41:11.443Z,10.50
2022-09-12T05:45:16.657Z,10.60
2022-09-12T05:49:18.584Z,10.80
2022-09-12T05:53:23.180Z,10.90
2022-09-12T05:57:25.157Z,11.00
2022-09-12T06:01:28.225Z,11.10
2022-09-12T06:05:30.214Z,11.30
2022-09-12T06:09:34.771Z,11.50
2022-09-12T06:13:38.944Z,11.60
2022-09-12T06:17:40.894Z,11.70
2022-09-12T06:21:43.279Z,11.90
2022-09-12T06:25:50.964Z,12.10
2022-09-12T06:29:52.909Z,12.20
2022-09-12T06:33:56.512Z,12.40
2022-09-12T06:37:58.499Z,12.50
2022-09-12T06:42:03.064Z,12.70
2022-09-12T06:46:05.547Z,12.90
2022-09-12T06:50:08.671Z,13.10
2022-09-12T06:54:13.598Z,13.20
2022-09-12T06:58:20.890Z,13.50
2022-09-12T07:02:22.865Z,13.70
2022-09-12T07:06:27.214Z,13.90
2022-09-12T07:10:29.413Z,14.10
2022-09-12T07:14:33.944Z,14.40
2022-09-12T07:18:36.596Z,14.70
2022-09-12T07:22:38.543Z,15.00
2022-09-12T07:26:41.082Z,15.10
2022-09-12T07:30:45.637Z,15.40
2022-09-12T07:34:47.612Z,15.80
2022-09-12T07:38:57.216Z,16.10
2022-09-12T07:42:59.589Z,16.20
2022-09-12T07:47:04.782Z,16.50
2022-09-12T07:51:09.053Z,16.70
2022-09-12T07:55:11.010Z,16.90
2022-09-12T07:59:13.003Z,17.10
2022-09-12T08:03:18.208Z,17.30
2022-09-12T08:07:20.222Z,17.10
2022-09-12T08:11:23.525Z,17.20
2022-09-12T08:15:25.767Z,17.40
2022-09-12T08:19:30.274Z,17.80
2022-09-12T08:23:33.054Z,18.10
2022-09-12T08:27:35.025Z,18.40
2022-09-12T08:31:36.970Z,18.70
2022-09-12T08:35:41.596Z,19.20
2022-09-12T08:39:43.579Z,19.10
2022-09-12T08:44:11.605Z,19.00
2022-09-12T08:48:14.170Z,19.00
2022-09-12T08:52:21.902Z,18.90
2022-09-12T08:56:31.433Z,19.30
2022-09-12T09:00:46.568Z,19.40
2022-09-12T09:04:51.732Z,19.60
2022-09-12T09:09:06.728Z,19.80
2022-09-12T09:13:17.319Z,19.70
2022-09-12T09:17:22.005Z,19.40
2022-09-12T09:21:29.718Z,19.70
2022-09-12T09:25:44.210Z,20.10
2022-09-12T09:29:51.047Z,20.10
2022-09-12T09:33:54.330Z,20.30
2022-09-12T09:38:02.135Z,20.60
2022-09-12T09:42:18.124Z,20.70
2022-09-12T09:46:20.159Z,20.70
2022-09-12T09:50:22.535Z,20.60
2022-09-12T09:54:29.637Z,20.60
2022-09-12T09:58:35.965Z,20.70
2022-09-12T10:02:37.981Z,20.80
2022-09-12T10:06:40.330Z,21.10
2022-09-12T10:10:53.672Z,21.20
